sensor_id;sensor_type;location;lat;lon;timestamp;P1;durP1;ratioP1;P2;durP2;ratioP2
13455;SDS011;6800;50.940;6.940;2022-12-07T00:03:42;29.33;;;25.00;;
13455;SDS011;6800;50.940;6.940;2022-12-07T00:07:44;29.07;;;24.70;;
13455;SDS011;6800;50.940;6.940;2022-12-07T00:11:44;30.70;;;25.83;;
13455;SDS011;6800;50.940;6.940;2022-12-07T00:15:47;27.70;;;24.00;;
13455;SDS011;6800;50.940;6.940;2022-12-07T00:19:47;28.17;;;25.17;;
13455;SDS011;6800;50.940;6.940;2022-12-07T00:23:48;27.60;;;24.57;;
13455;SDS011;6800;50.940;6.940;2022-12-07T00:27:52;28.13;;;23.73;;
13455;SDS011;6800;50.940;6.940;2022-12-07T00:31:53;27.03;;;24.13;;
13455;SDS011;6800;50.940;6.940;2022-12-07T00:35:57;31.13;;;24.33;;
13455;SDS011;6800;50.940;6.940;2022-12-07T00:39:58;28.43;;;23.33;;
13455;SDS011;6800;50.940;6.940;2022-12-07T00:43:58;30.00;;;24.15;;
13455;SDS011;6800;50.940;6.940;2022-12-07T00:47:59;26.55;;;23.42;;
13455;SDS011;6800;50.940;6.940;2022-12-07T00:51:59;27.50;;;24.60;;
13455;SDS011;6800;50.940;6.940;2022-12-07T00:56:04;30.70;;;25.63;;
13455;SDS011;6800;50.940;6.940;2022-12-07T01:00:08;25.77;;;23.07;;
13455;SDS011;6800;50.940;6.940;2022-12-07T01:04:08;28.30;;;23.23;;
13455;SDS011;6800;50.940;6.940;2022-12-07T01:08:08;28.03;;;24.47;;
13455;SDS011;6800;50.940;6.940;2022-12-07T01:12:09;27.13;;;23.23;;
13455;SDS011;6800;50.940;6.940;2022-12-07T01:16:10;28.02;;;23.92;;
13455;SDS011;6800;50.940;6.940;2022-12-07T01:20:12;27.50;;;24.57;;
13455;SDS011;6800;50.940;6.940;2022-12-07T01:24:13;28.73;;;24.73;;
13455;SDS011;6800;50.940;6.940;2022-12-07T01:28:13;27.53;;;24.80;;
13455;SDS011;6800;50.940;6.940;2022-12-07T01:32:14;29.57;;;24.83;;
13455;SDS011;6800;50.940;6.940;2022-12-07T01:36:15;30.13;;;25.10;;
13455;SDS011;6800;50.940;6.940;2022-12-07T01:40:15;31.00;;;25.60;;
13455;SDS011;6800;50.940;6.940;2022-12-07T01:44:17;29.50;;;26.23;;
13455;SDS011;6800;50.940;6.940;2022-12-07T01:48:21;28.77;;;24.60;;
13455;SDS011;6800;50.940;6.940;2022-12-07T01:52:27;28.07;;;25.13;;
13455;SDS011;6800;50.940;6.940;2022-12-07T01:56:30;28.13;;;25.33;;
13455;SDS011;6800;50.940;6.940;2022-12-07T02:00:32;29.83;;;25.07;;
13455;SDS011;6800;50.940;6.940;2022-12-07T02:04:32;29.20;;;26.07;;
13455;SDS011;6800;50.940;6.940;2022-12-07T02:08:33;29.03;;;25.70;;
13455;SDS011;6800;50.940;6.940;2022-12-07T02:12:34;27.57;;;24.23;;
13455;SDS011;6800;50.940;6.940;2022-12-07T02:16:51;29.57;;;25.83;;
13455;SDS011;6800;50.940;6.940;2022-12-07T02:21:42;28.90;;;25.87;;
13455;SDS011;6800;50.940;6.940;2022-12-07T02:29:58;29.07;;;26.00;;
13455;SDS011;6800;50.940;6.940;2022-12-07T02:34:30;29.73;;;24.60;;
13455;SDS011;6800;50.940;6.940;2022-12-07T02:39:18;29.87;;;26.63;;
13455;SDS011;6800;50.940;6.940;2022-12-07T02:43:28;31.03;;;25.70;;
13455;SDS011;6800;50.940;6.940;2022-12-07T02:47:34;29.90;;;26.63;;
13455;SDS011;6800;50.940;6.940;2022-12-07T02:51:44;30.60;;;25.83;;
13455;SDS011;6800;50.940;6.940;2022-12-07T02:55:46;30.77;;;26.73;;
13455;SDS011;6800;50.940;6.940;2022-12-07T02:59:57;31.83;;;27.00;;
13455;SDS011;6800;50.940;6.940;2022-12-07T03:04:17;31.93;;;25.77;;
13455;SDS011;6800;50.940;6.940;2022-12-07T03:08:42;32.13;;;26.43;;
13455;SDS011;6800;50.940;6.940;2022-12-07T03:12:52;30.57;;;26.93;;
13455;SDS011;6800;50.940;6.940;2022-12-07T03:16:56;33.40;;;27.37;;
13455;SDS011;6800;50.940;6.940;2022-12-07T03:21:05;33.90;;;27.40;;
13455;SDS011;6800;50.940;6.940;2022-12-07T03:25:13;31.43;;;27.20;;
13455;SDS011;6800;50.940;6.940;2022-12-07T03:29:24;31.27;;;27.47;;
13455;SDS011;6800;50.940;6.940;2022-12-07T03:33:39;32.00;;;28.13;;
13455;SDS011;6800;50.940;6.940;2022-12-07T03:37:48;32.57;;;27.60;;
13455;SDS011;6800;50.940;6.940;2022-12-07T03:41:54;32.37;;;27.83;;
13455;SDS011;6800;50.940;6.940;2022-12-07T03:46:15;34.77;;;29.50;;
13455;SDS011;6800;50.940;6.940;2022-12-07T03:54:43;33.87;;;28.70;;
13455;SDS011;6800;50.940;6.940;2022-12-07T03:58:45;33.33;;;28.20;;
13455;SDS011;6800;50.940;6.940;2022-12-07T04:02:46;32.70;;;28.73;;
13455;SDS011;6800;50.940;6.940;2022-12-07T04:06:47;31.20;;;27.63;;
13455;SDS011;6800;50.940;6.940;2022-12-07T04:10:47;33.83;;;27.70;;
13455;SDS011;6800;50.940;6.940;2022-12-07T04:14:47;31.07;;;26.93;;
13455;SDS011;6800;50.940;6.940;2022-12-07T04:18:48;33.92;;;27.58;;
13455;SDS011;6800;50.940;6.940;2022-12-07T04:22:48;33.33;;;28.07;;
13455;SDS011;6800;50.940;6.940;2022-12-07T04:26:48;30.70;;;26.30;;
13455;SDS011;6800;50.940;6.940;2022-12-07T04:30:49;30.43;;;27.13;;
13455;SDS011;6800;50.940;6.940;2022-12-07T04:34:49;33.73;;;27.00;;
13455;SDS011;6800;50.940;6.940;2022-12-07T04:38:49;30.93;;;27.57;;
13455;SDS011;6800;50.940;6.940;2022-12-07T04:42:49;31.67;;;27.38;;
13455;SDS011;6800;50.940;6.940;2022-12-07T04:46:50;31.33;;;25.92;;
13455;SDS011;6800;50.940;6.940;2022-12-07T04:50:51;31.07;;;26.83;;
13455;SDS011;6800;50.940;6.940;2022-12-07T04:54:51;31.47;;;26.40;;
13455;SDS011;6800;50.940;6.940;2022-12-07T04:58:52;29.57;;;25.27;;
13455;SDS011;6800;50.940;6.940;2022-12-07T05:02:53;33.27;;;26.07;;
13455;SDS011;6800;50.940;6.940;2022-12-07T05:06:54;42.47;;;27.37;;
13455;SDS011;6800;50.940;6.940;2022-12-07T05:10:54;31.40;;;27.33;;
13455;SDS011;6800;50.940;6.940;2022-12-07T05:14:54;30.57;;;27.23;;
13455;SDS011;6800;50.940;6.940;2022-12-07T05:18:54;31.20;;;27.17;;
13455;SDS011;6800;50.940;6.940;2022-12-07T05:22:55;29.47;;;26.30;;
13455;SDS011;6800;50.940;6.940;2022-12-07T05:26:55;32.13;;;26.42;;
13455;SDS011;6800;50.940;6.940;2022-12-07T05:30:55;30.20;;;26.90;;
13455;SDS011;6800;50.940;6.940;2022-12-07T05:34:55;30.80;;;25.67;;
13455;SDS011;6800;50.940;6.940;2022-12-07T05:38:55;31.33;;;25.50;;
13455;SDS011;6800;50.940;6.940;2022-12-07T05:42:56;31.70;;;26.27;;
13455;SDS011;6800;50.940;6.940;2022-12-07T05:46:56;32.53;;;27.23;;
13455;SDS011;6800;50.940;6.940;2022-12-07T05:50:56;32.97;;;27.80;;
13455;SDS011;6800;50.940;6.940;2022-12-07T05:54:56;32.63;;;28.13;;
13455;SDS011;6800;50.940;6.940;2022-12-07T05:58:57;34.27;;;27.17;;
13455;SDS011;6800;50.940;6.940;2022-12-07T06:03:15;35.47;;;28.70;;
13455;SDS011;6800;50.940;6.940;2022-12-07T06:07:16;39.20;;;30.17;;
13455;SDS011;6800;50.940;6.940;2022-12-07T06:11:17;40.83;;;31.63;;
13455;SDS011;6800;50.940;6.940;2022-12-07T06:15:36;45.17;;;31.27;;
13455;SDS011;6800;50.940;6.940;2022-12-07T06:19:36;39.57;;;30.37;;
13455;SDS011;6800;50.940;6.940;2022-12-07T06:23:37;45.90;;;34.85;;
13455;SDS011;6800;50.940;6.940;2022-12-07T06:27:37;47.45;;;34.03;;
13455;SDS011;6800;50.940;6.940;2022-12-07T06:31:37;46.27;;;34.53;;
13455;SDS011;6800;50.940;6.940;2022-12-07T06:35:38;49.47;;;35.40;;
13455;SDS011;6800;50.940;6.940;2022-12-07T06:39:38;53.38;;;35.08;;
13455;SDS011;6800;50.940;6.940;2022-12-07T06:43:38;55.47;;;37.53;;
13455;SDS011;6800;50.940;6.940;2022-12-07T06:47:39;51.25;;;36.85;;
13455;SDS011;6800;50.940;6.940;2022-12-07T06:51:39;51.05;;;37.72;;
13455;SDS011;6800;50.940;6.940;2022-12-07T06:55:41;50.43;;;37.17;;
13455;SDS011;6800;50.940;6.940;2022-12-07T06:59:42;52.83;;;36.97;;
13455;SDS011;6800;50.940;6.940;2022-12-07T07:03:42;55.67;;;38.23;;
13455;SDS011;6800;50.940;6.940;2022-12-07T07:07:43;51.87;;;37.70;;
13455;SDS011;6800;50.940;6.940;2022-12-07T07:11:44;50.97;;;36.50;;
13455;SDS011;6800;50.940;6.940;2022-12-07T07:15:44;45.13;;;36.10;;
13455;SDS011;6800;50.940;6.940;2022-12-07T07:19:44;48.37;;;36.27;;
13455;SDS011;6800;50.940;6.940;2022-12-07T07:23:45;50.65;;;36.65;;
13455;SDS011;6800;50.940;6.940;2022-12-07T07:27:45;46.47;;;35.07;;
13455;SDS011;6800;50.940;6.940;2022-12-07T07:31:45;52.07;;;37.10;;
13455;SDS011;6800;50.940;6.940;2022-12-07T07:35:45;52.47;;;36.13;;
13455;SDS011;6800;50.940;6.940;2022-12-07T07:39:46;46.73;;;35.53;;
13455;SDS011;6800;50.940;6.940;2022-12-07T07:43:46;48.83;;;35.63;;
13455;SDS011;6800;50.940;6.940;2022-12-07T07:47:46;49.38;;;35.53;;
13455;SDS011;6800;50.940;6.940;2022-12-07T07:51:47;45.10;;;35.27;;
13455;SDS011;6800;50.940;6.940;2022-12-07T07:55:51;46.00;;;35.70;;
13455;SDS011;6800;50.940;6.940;2022-12-07T07:59:53;45.83;;;34.83;;
13455;SDS011;6800;50.940;6.940;2022-12-07T08:03:53;41.67;;;34.00;;
13455;SDS011;6800;50.940;6.940;2022-12-07T08:07:53;39.80;;;32.90;;
13455;SDS011;6800;50.940;6.940;2022-12-07T08:11:53;41.47;;;33.70;;
13455;SDS011;6800;50.940;6.940;2022-12-07T08:15:54;41.97;;;32.37;;
13455;SDS011;6800;50.940;6.940;2022-12-07T08:19:54;39.40;;;32.37;;
13455;SDS011;6800;50.940;6.940;2022-12-07T08:23:54;37.47;;;31.52;;
13455;SDS011;6800;50.940;6.940;2022-12-07T08:27:54;44.28;;;31.90;;
13455;SDS011;6800;50.940;6.940;2022-12-07T08:31:55;39.23;;;31.20;;
13455;SDS011;6800;50.940;6.940;2022-12-07T08:35:59;37.20;;;30.10;;
13455;SDS011;6800;50.940;6.940;2022-12-07T08:40:04;36.63;;;29.47;;
13455;SDS011;6800;50.940;6.940;2022-12-07T08:44:07;37.77;;;29.20;;
13455;SDS011;6800;50.940;6.940;2022-12-07T08:48:08;33.13;;;26.05;;
13455;SDS011;6800;50.940;6.940;2022-12-07T08:52:13;35.17;;;24.80;;
13455;SDS011;6800;50.940;6.940;2022-12-07T08:56:13;27.57;;;24.57;;
13455;SDS011;6800;50.940;6.940;2022-12-07T09:00:14;28.23;;;24.13;;
13455;SDS011;6800;50.940;6.940;2022-12-07T09:04:14;27.23;;;23.73;;
13455;SDS011;6800;50.940;6.940;2022-12-07T09:08:15;26.73;;;23.67;;
13455;SDS011;6800;50.940;6.940;2022-12-07T09:12:16;24.67;;;21.33;;
13455;SDS011;6800;50.940;6.940;2022-12-07T09:16:16;25.17;;;20.50;;
13455;SDS011;6800;50.940;6.940;2022-12-07T09:20:17;20.63;;;18.33;;
13455;SDS011;6800;50.940;6.940;2022-12-07T09:24:18;23.27;;;18.30;;
13455;SDS011;6800;50.940;6.940;2022-12-07T09:28:18;26.00;;;18.47;;
13455;SDS011;6800;50.940;6.940;2022-12-07T09:32:18;23.00;;;18.57;;
13455;SDS011;6800;50.940;6.940;2022-12-07T09:36:18;21.37;;;15.70;;
13455;SDS011;6800;50.940;6.940;2022-12-07T09:40:20;20.60;;;15.77;;
13455;SDS011;6800;50.940;6.940;2022-12-07T09:44:23;19.80;;;15.37;;
13455;SDS011;6800;50.940;6.940;2022-12-07T09:48:29;17.27;;;15.40;;
13455;SDS011;6800;50.940;6.940;2022-12-07T09:52:32;22.53;;;15.77;;
13455;SDS011;6800;50.940;6.940;2022-12-07T09:56:32;21.17;;;15.17;;
13455;SDS011;6800;50.940;6.940;2022-12-07T10:00:32;18.47;;;14.87;;
13455;SDS011;6800;50.940;6.940;2022-12-07T10:04:33;20.23;;;15.00;;
13455;SDS011;6800;50.940;6.940;2022-12-07T10:08:33;17.17;;;13.63;;
13455;SDS011;6800;50.940;6.940;2022-12-07T10:12:50;15.07;;;12.20;;
13455;SDS011;6800;50.940;6.940;2022-12-07T10:17:25;17.47;;;12.70;;
13455;SDS011;6800;50.940;6.940;2022-12-07T10:21:31;13.97;;;12.00;;
13455;SDS011;6800;50.940;6.940;2022-12-07T10:25:32;16.52;;;12.55;;
13455;SDS011;6800;50.940;6.940;2022-12-07T10:29:38;14.40;;;11.33;;
13455;SDS011;6800;50.940;6.940;2022-12-07T10:33:48;13.47;;;11.47;;
13455;SDS011;6800;50.940;6.940;2022-12-07T10:37:51;15.50;;;12.03;;
13455;SDS011;6800;50.940;6.940;2022-12-07T10:41:59;13.97;;;11.50;;
13455;SDS011;6800;50.940;6.940;2022-12-07T10:50:27;12.67;;;11.13;;
13455;SDS011;6800;50.940;6.940;2022-12-07T11:16:57;11.47;;;9.87;;
13455;SDS011;6800;50.940;6.940;2022-12-07T11:21:07;13.90;;;9.87;;
13455;SDS011;6800;50.940;6.940;2022-12-07T11:25:18;15.00;;;9.33;;
13455;SDS011;6800;50.940;6.940;2022-12-07T11:29:43;12.07;;;9.20;;
13455;SDS011;6800;50.940;6.940;2022-12-07T11:34:04;11.93;;;8.73;;
13455;SDS011;6800;50.940;6.940;2022-12-07T11:38:11;11.73;;;9.10;;
13455;SDS011;6800;50.940;6.940;2022-12-07T11:42:25;14.73;;;9.77;;
13455;SDS011;6800;50.940;6.940;2022-12-07T11:46:38;15.13;;;9.10;;
13455;SDS011;6800;50.940;6.940;2022-12-07T11:50:48;15.27;;;9.27;;
13455;SDS011;6800;50.940;6.940;2022-12-07T11:54:51;13.57;;;9.50;;
13455;SDS011;6800;50.940;6.940;2022-12-07T11:58:55;15.37;;;9.50;;
13455;SDS011;6800;50.940;6.940;2022-12-07T12:07:10;12.23;;;8.93;;
13455;SDS011;6800;50.940;6.940;2022-12-07T12:11:32;14.47;;;10.27;;
13455;SDS011;6800;50.940;6.940;2022-12-07T12:20:36;14.53;;;10.73;;
13455;SDS011;6800;50.940;6.940;2022-12-07T12:24:44;17.47;;;13.10;;
13455;SDS011;6800;50.940;6.940;2022-12-07T12:29:00;16.50;;;11.47;;
13455;SDS011;6800;50.940;6.940;2022-12-07T12:33:14;16.37;;;11.93;;
13455;SDS011;6800;50.940;6.940;2022-12-07T12:45:48;15.80;;;13.53;;
13455;SDS011;6800;50.940;6.940;2022-12-07T12:54:28;14.73;;;11.67;;
13455;SDS011;6800;50.940;6.940;2022-12-07T12:58:34;16.87;;;11.13;;
13455;SDS011;6800;50.940;6.940;2022-12-07T13:02:38;12.13;;;10.83;;
13455;SDS011;6800;50.940;6.940;2022-12-07T13:06:47;13.37;;;10.40;;
13455;SDS011;6800;50.940;6.940;2022-12-07T13:10:47;15.17;;;11.60;;
13455;SDS011;6800;50.940;6.940;2022-12-07T13:14:52;15.77;;;10.40;;
13455;SDS011;6800;50.940;6.940;2022-12-07T13:18:54;16.93;;;10.90;;
13455;SDS011;6800;50.940;6.940;2022-12-07T13:22:55;16.60;;;10.70;;
13455;SDS011;6800;50.940;6.940;2022-12-07T13:26:59;17.20;;;10.97;;
13455;SDS011;6800;50.940;6.940;2022-12-07T13:31:04;18.00;;;11.27;;
13455;SDS011;6800;50.940;6.940;2022-12-07T13:39:32;16.13;;;11.20;;
13455;SDS011;6800;50.940;6.940;2022-12-07T13:43:42;13.50;;;10.93;;
13455;SDS011;6800;50.940;6.940;2022-12-07T13:47:46;16.13;;;10.77;;
13455;SDS011;6800;50.940;6.940;2022-12-07T13:51:52;14.93;;;11.37;;
13455;SDS011;6800;50.940;6.940;2022-12-07T13:55:53;14.93;;;10.60;;
13455;SDS011;6800;50.940;6.940;2022-12-07T13:59:54;13.03;;;10.30;;
13455;SDS011;6800;50.940;6.940;2022-12-07T14:03:54;18.77;;;10.43;;
13455;SDS011;6800;50.940;6.940;2022-12-07T14:07:59;12.93;;;9.33;;
13455;SDS011;6800;50.940;6.940;2022-12-07T14:12:21;11.80;;;9.13;;
13455;SDS011;6800;50.940;6.940;2022-12-07T14:16:29;16.83;;;10.80;;
13455;SDS011;6800;50.940;6.940;2022-12-07T14:20:40;14.53;;;10.17;;
13455;SDS011;6800;50.940;6.940;2022-12-07T14:24:41;13.73;;;10.47;;
13455;SDS011;6800;50.940;6.940;2022-12-07T14:28:43;16.27;;;10.40;;
13455;SDS011;6800;50.940;6.940;2022-12-07T14:32:43;13.37;;;11.00;;
13455;SDS011;6800;50.940;6.940;2022-12-07T14:36:48;13.37;;;10.07;;
13455;SDS011;6800;50.940;6.940;2022-12-07T14:40:48;11.83;;;9.93;;
13455;SDS011;6800;50.940;6.940;2022-12-07T14:44:49;11.00;;;9.73;;
13455;SDS011;6800;50.940;6.940;2022-12-07T14:48:49;13.30;;;10.37;;
13455;SDS011;6800;50.940;6.940;2022-12-07T14:52:57;12.40;;;9.90;;
13455;SDS011;6800;50.940;6.940;2022-12-07T14:57:00;15.33;;;10.30;;
13455;SDS011;6800;50.940;6.940;2022-12-07T15:01:01;13.63;;;11.40;;
13455;SDS011;6800;50.940;6.940;2022-12-07T15:05:01;20.10;;;11.13;;
13455;SDS011;6800;50.940;6.940;2022-12-07T15:09:02;16.77;;;12.23;;
13455;SDS011;6800;50.940;6.940;2022-12-07T15:13:03;15.07;;;12.23;;
13455;SDS011;6800;50.940;6.940;2022-12-07T15:17:35;15.30;;;11.63;;
13455;SDS011;6800;50.940;6.940;2022-12-07T15:21:35;15.73;;;11.60;;
13455;SDS011;6800;50.940;6.940;2022-12-07T15:25:36;17.37;;;13.13;;
13455;SDS011;6800;50.940;6.940;2022-12-07T15:29:36;11.20;;;8.20;;
13455;SDS011;6800;50.940;6.940;2022-12-07T15:33:36;11.00;;;8.80;;
13455;SDS011;6800;50.940;6.940;2022-12-07T15:37:36;13.40;;;9.88;;
13455;SDS011;6800;50.940;6.940;2022-12-07T15:41:37;11.07;;;7.93;;
13455;SDS011;6800;50.940;6.940;2022-12-07T15:45:37;15.83;;;9.70;;
13455;SDS011;6800;50.940;6.940;2022-12-07T15:49:38;15.93;;;9.37;;
13455;SDS011;6800;50.940;6.940;2022-12-07T15:53:38;16.87;;;11.27;;
13455;SDS011;6800;50.940;6.940;2022-12-07T15:57:38;14.27;;;10.83;;
13455;SDS011;6800;50.940;6.940;2022-12-07T16:01:39;16.30;;;12.23;;
13455;SDS011;6800;50.940;6.940;2022-12-07T16:05:39;16.90;;;12.17;;
13455;SDS011;6800;50.940;6.940;2022-12-07T16:09:39;17.60;;;13.80;;
13455;SDS011;6800;50.940;6.940;2022-12-07T16:13:40;20.00;;;15.80;;
13455;SDS011;6800;50.940;6.940;2022-12-07T16:17:40;20.27;;;14.50;;
13455;SDS011;6800;50.940;6.940;2022-12-07T16:21:40;18.48;;;13.02;;
13455;SDS011;6800;50.940;6.940;2022-12-07T16:25:40;14.27;;;12.63;;
13455;SDS011;6800;50.940;6.940;2022-12-07T16:29:41;16.07;;;12.33;;
13455;SDS011;6800;50.940;6.940;2022-12-07T16:33:42;18.57;;;10.87;;
13455;SDS011;6800;50.940;6.940;2022-12-07T16:37:43;17.23;;;11.10;;
13455;SDS011;6800;50.940;6.940;2022-12-07T16:41:43;9.60;;;8.65;;
13455;SDS011;6800;50.940;6.940;2022-12-07T16:45:45;12.13;;;9.33;;
13455;SDS011;6800;50.940;6.940;2022-12-07T16:49:45;9.00;;;7.67;;
13455;SDS011;6800;50.940;6.940;2022-12-07T16:53:46;9.63;;;7.80;;
13455;SDS011;6800;50.940;6.940;2022-12-07T16:57:46;11.20;;;8.53;;
13455;SDS011;6800;50.940;6.940;2022-12-07T17:01:46;11.67;;;9.53;;
13455;SDS011;6800;50.940;6.940;2022-12-07T17:05:46;13.00;;;10.77;;
13455;SDS011;6800;50.940;6.940;2022-12-07T17:09:48;13.67;;;10.40;;
13455;SDS011;6800;50.940;6.940;2022-12-07T17:13:49;13.00;;;9.87;;
13455;SDS011;6800;50.940;6.940;2022-12-07T17:18:08;11.93;;;9.87;;
13455;SDS011;6800;50.940;6.940;2022-12-07T17:22:08;17.07;;;11.37;;
13455;SDS011;6800;50.940;6.940;2022-12-07T17:26:12;14.20;;;11.63;;
13455;SDS011;6800;50.940;6.940;2022-12-07T17:30:18;14.47;;;11.10;;
13455;SDS011;6800;50.940;6.940;2022-12-07T17:34:18;16.97;;;13.57;;
13455;SDS011;6800;50.940;6.940;2022-12-07T17:38:18;15.07;;;13.57;;
13455;SDS011;6800;50.940;6.940;2022-12-07T17:42:19;15.67;;;13.50;;
13455;SDS011;6800;50.940;6.940;2022-12-07T17:46:39;18.30;;;14.33;;
13455;SDS011;6800;50.940;6.940;2022-12-07T17:50:39;14.83;;;13.30;;
13455;SDS011;6800;50.940;6.940;2022-12-07T17:54:58;16.40;;;14.57;;
13455;SDS011;6800;50.940;6.940;2022-12-07T17:58:58;16.57;;;14.97;;
13455;SDS011;6800;50.940;6.940;2022-12-07T18:02:58;17.95;;;14.35;;
13455;SDS011;6800;50.940;6.940;2022-12-07T18:06:58;18.37;;;14.33;;
13455;SDS011;6800;50.940;6.940;2022-12-07T18:10:59;17.90;;;16.07;;
13455;SDS011;6800;50.940;6.940;2022-12-07T18:14:59;19.67;;;16.80;;
13455;SDS011;6800;50.940;6.940;2022-12-07T18:19:01;23.50;;;18.80;;
13455;SDS011;6800;50.940;6.940;2022-12-07T18:23:02;22.17;;;18.37;;
13455;SDS011;6800;50.940;6.940;2022-12-07T18:27:03;27.57;;;20.77;;
13455;SDS011;6800;50.940;6.940;2022-12-07T18:31:05;22.07;;;19.57;;
13455;SDS011;6800;50.940;6.940;2022-12-07T18:35:05;25.17;;;20.30;;
13455;SDS011;6800;50.940;6.940;2022-12-07T18:39:06;28.83;;;21.60;;
13455;SDS011;6800;50.940;6.940;2022-12-07T18:43:08;27.07;;;21.27;;
13455;SDS011;6800;50.940;6.940;2022-12-07T18:47:09;25.93;;;19.83;;
13455;SDS011;6800;50.940;6.940;2022-12-07T18:51:10;21.77;;;19.40;;
13455;SDS011;6800;50.940;6.940;2022-12-07T18:55:12;23.03;;;20.20;;
13455;SDS011;6800;50.940;6.940;2022-12-07T18:59:12;20.75;;;18.63;;
13455;SDS011;6800;50.940;6.940;2022-12-07T19:03:31;21.47;;;19.17;;
13455;SDS011;6800;50.940;6.940;2022-12-07T19:07:31;22.60;;;18.87;;
13455;SDS011;6800;50.940;6.940;2022-12-07T19:11:32;24.17;;;18.97;;
13455;SDS011;6800;50.940;6.940;2022-12-07T19:15:51;20.90;;;18.03;;
13455;SDS011;6800;50.940;6.940;2022-12-07T19:19:51;22.63;;;18.70;;
13455;SDS011;6800;50.940;6.940;2022-12-07T19:23:51;24.07;;;18.67;;
13455;SDS011;6800;50.940;6.940;2022-12-07T19:27:52;23.53;;;18.57;;
13455;SDS011;6800;50.940;6.940;2022-12-07T19:31:52;22.70;;;18.55;;
13455;SDS011;6800;50.940;6.940;2022-12-07T19:35:52;25.10;;;18.50;;
13455;SDS011;6800;50.940;6.940;2022-12-07T19:39:53;22.20;;;18.43;;
13455;SDS011;6800;50.940;6.940;2022-12-07T19:43:53;26.53;;;19.10;;
13455;SDS011;6800;50.940;6.940;2022-12-07T19:47:53;22.20;;;19.80;;
13455;SDS011;6800;50.940;6.940;2022-12-07T19:51:55;25.10;;;19.90;;
13455;SDS011;6800;50.940;6.940;2022-12-07T19:55:57;23.57;;;19.67;;
13455;SDS011;6800;50.940;6.940;2022-12-07T19:59:57;23.80;;;19.40;;
13455;SDS011;6800;50.940;6.940;2022-12-07T20:03:58;25.17;;;20.37;;
13455;SDS011;6800;50.940;6.940;2022-12-07T20:07:58;24.57;;;20.73;;
13455;SDS011;6800;50.940;6.940;2022-12-07T20:11:58;22.50;;;20.13;;
13455;SDS011;6800;50.940;6.940;2022-12-07T20:16:18;23.70;;;20.00;;
13455;SDS011;6800;50.940;6.940;2022-12-07T20:20:19;23.40;;;20.10;;
13455;SDS011;6800;50.940;6.940;2022-12-07T20:24:20;22.80;;;20.10;;
13455;SDS011;6800;50.940;6.940;2022-12-07T20:28:22;24.63;;;21.17;;
13455;SDS011;6800;50.940;6.940;2022-12-07T20:32:23;26.33;;;20.93;;
13455;SDS011;6800;50.940;6.940;2022-12-07T20:36:23;22.52;;;20.05;;
13455;SDS011;6800;50.940;6.940;2022-12-07T20:40:24;25.20;;;21.13;;
13455;SDS011;6800;50.940;6.940;2022-12-07T20:44:24;24.83;;;20.02;;
13455;SDS011;6800;50.940;6.940;2022-12-07T20:48:25;26.17;;;20.83;;
13455;SDS011;6800;50.940;6.940;2022-12-07T20:52:26;26.73;;;20.40;;
13455;SDS011;6800;50.940;6.940;2022-12-07T20:56:27;26.47;;;21.03;;
13455;SDS011;6800;50.940;6.940;2022-12-07T21:00:29;22.27;;;19.93;;
13455;SDS011;6800;50.940;6.940;2022-12-07T21:04:29;23.53;;;20.80;;
13455;SDS011;6800;50.940;6.940;2022-12-07T21:08:30;23.65;;;19.33;;
13455;SDS011;6800;50.940;6.940;2022-12-07T21:12:30;23.63;;;19.60;;
13455;SDS011;6800;50.940;6.940;2022-12-07T21:16:30;24.63;;;21.03;;
13455;SDS011;6800;50.940;6.940;2022-12-07T21:20:31;24.43;;;19.80;;
13455;SDS011;6800;50.940;6.940;2022-12-07T21:24:32;25.13;;;20.03;;
13455;SDS011;6800;50.940;6.940;2022-12-07T21:28:32;24.67;;;20.27;;
13455;SDS011;6800;50.940;6.940;2022-12-07T21:32:32;22.90;;;20.50;;
13455;SDS011;6800;50.940;6.940;2022-12-07T21:36:33;24.97;;;20.27;;
13455;SDS011;6800;50.940;6.940;2022-12-07T21:40:34;22.10;;;19.60;;
13455;SDS011;6800;50.940;6.940;2022-12-07T21:44:34;23.97;;;19.83;;
13455;SDS011;6800;50.940;6.940;2022-12-07T21:48:34;21.23;;;19.03;;
13455;SDS011;6800;50.940;6.940;2022-12-07T21:52:35;23.13;;;19.30;;
13455;SDS011;6800;50.940;6.940;2022-12-07T21:56:36;22.63;;;19.10;;
13455;SDS011;6800;50.940;6.940;2022-12-07T22:00:38;23.33;;;19.00;;
13455;SDS011;6800;50.940;6.940;2022-12-07T22:04:39;22.77;;;19.07;;
13455;SDS011;6800;50.940;6.940;2022-12-07T22:08:39;23.37;;;19.80;;
13455;SDS011;6800;50.940;6.940;2022-12-07T22:12:40;24.30;;;19.30;;
13455;SDS011;6800;50.940;6.940;2022-12-07T22:16:40;26.55;;;19.80;;
13455;SDS011;6800;50.940;6.940;2022-12-07T22:20:41;23.08;;;18.20;;
13455;SDS011;6800;50.940;6.940;2022-12-07T22:24:41;24.27;;;19.57;;
13455;SDS011;6800;50.940;6.940;2022-12-07T22:28:43;21.83;;;18.43;;
13455;SDS011;6800;50.940;6.940;2022-12-07T22:32:44;23.13;;;19.27;;
13455;SDS011;6800;50.940;6.940;2022-12-07T22:36:44;26.43;;;22.17;;
13455;SDS011;6800;50.940;6.940;2022-12-07T22:40:44;25.00;;;20.02;;
13455;SDS011;6800;50.940;6.940;2022-12-07T22:44:45;23.03;;;20.47;;
13455;SDS011;6800;50.940;6.940;2022-12-07T22:48:45;25.93;;;22.10;;
13455;SDS011;6800;50.940;6.940;2022-12-07T22:52:46;24.13;;;21.63;;
13455;SDS011;6800;50.940;6.940;2022-12-07T22:56:46;24.77;;;21.57;;
13455;SDS011;6800;50.940;6.940;2022-12-07T23:00:49;27.73;;;22.60;;
13455;SDS011;6800;50.940;6.940;2022-12-07T23:04:56;23.90;;;20.67;;
13455;SDS011;6800;50.940;6.940;2022-12-07T23:09:04;24.27;;;21.67;;
13455;SDS011;6800;50.940;6.940;2022-12-07T23:13:08;24.80;;;21.57;;
13455;SDS011;6800;50.940;6.940;2022-12-07T23:17:30;23.47;;;20.43;;
13455;SDS011;6800;50.940;6.940;2022-12-07T23:21:31;23.30;;;20.80;;
13455;SDS011;6800;50.940;6.940;2022-12-07T23:25:31;24.57;;;20.80;;
13455;SDS011;6800;50.940;6.940;2022-12-07T23:29:32;25.57;;;19.47;;
13455;SDS011;6800;50.940;6.940;2022-12-07T23:33:32;24.07;;;20.23;;
13455;SDS011;6800;50.940;6.940;2022-12-07T23:37:33;22.83;;;19.97;;
13455;SDS011;6800;50.940;6.940;2022-12-07T23:41:33;23.77;;;20.15;;
13455;SDS011;6800;50.940;6.940;2022-12-07T23:45:33;25.10;;;20.33;;
13455;SDS011;6800;50.940;6.940;2022-12-07T23:49:33;20.60;;;18.20;;
13455;SDS011;6800;50.940;6.940;2022-12-07T23:53:34;22.10;;;19.63;;
13455;SDS011;6800;50.940;6.940;2022-12-07T23:57:36;22.00;;;19.03;;
